createdAt,value
2022-08-19T00:04:51.861Z,15.25
2022-08-19T00:09:53.705Z,13.27
2022-08-19T00:14:58.377Z,12.18
2022-08-19T00:20:00.086Z,14.27
2022-08-19T00:25:02.207Z,11.20
2022-08-19T00:30:07.055Z,14.50
2022-08-19T00:35:09.144Z,12.00
2022-08-19T00:40:12.343Z,11.65
2022-08-19T00:45:25.388Z,17.42
2022-08-19T00:50:26.997Z,16.70
2022-08-19T00:55:29.555Z,17.05
2022-08-19T01:00:32.257Z,20.10
2022-08-19T01:05:34.113Z,18.50
2022-08-19T01:10:41.632Z,20.73
2022-08-19T01:15:47.487Z,20.05
2022-08-19T01:20:49.322Z,18.63
2022-08-19T01:25:53.317Z,16.95
2022-08-19T01:30:56.303Z,19.80
2022-08-19T01:36:06.738Z,20.92
2022-08-19T01:41:10.842Z,24.33
2022-08-19T01:46:12.928Z,24.98
2022-08-19T01:51:14.880Z,23.48
2022-08-19T01:56:17.260Z,20.60
2022-08-19T02:01:19.057Z,24.55
2022-08-19T02:06:20.816Z,26.08
2022-08-19T02:11:31.990Z,27.65
2022-08-19T02:16:34.161Z,23.20
2022-08-19T02:21:35.978Z,23.75
2022-08-19T02:26:37.550Z,26.83
2022-08-19T02:31:39.204Z,26.17
2022-08-19T02:36:42.503Z,27.33
2022-08-19T02:41:44.478Z,26.52
2022-08-19T02:46:48.214Z,25.05
2022-08-19T02:51:49.776Z,22.23
2022-08-19T02:56:51.375Z,22.73
2022-08-19T03:01:53.191Z,21.45
2022-08-19T03:06:56.755Z,20.08
2022-08-19T03:12:00.098Z,23.85
2022-08-19T03:17:01.950Z,23.23
2022-08-19T03:22:03.721Z,26.88
2022-08-19T03:27:05.362Z,27.40
2022-08-19T03:32:07.229Z,25.75
2022-08-19T03:37:12.711Z,27.60
2022-08-19T03:42:32.155Z,28.77
2022-08-19T03:47:35.204Z,28.80
2022-08-19T03:52:36.775Z,25.67
2022-08-19T03:57:38.352Z,22.80
2022-08-19T04:02:40.126Z,23.58
2022-08-19T04:07:41.867Z,25.80
2022-08-19T04:12:43.422Z,26.42
2022-08-19T04:17:44.981Z,25.35
2022-08-19T04:22:46.645Z,29.38
2022-08-19T04:27:48.231Z,29.70
2022-08-19T04:32:49.783Z,27.73
2022-08-19T04:37:51.365Z,24.88
2022-08-19T04:42:53.165Z,26.70
2022-08-19T04:47:58.744Z,26.27
2022-08-19T04:53:18.065Z,23.02
2022-08-19T04:58:19.631Z,24.92
2022-08-19T05:03:21.700Z,22.92
2022-08-19T05:08:31.404Z,26.17
2022-08-19T05:13:33.372Z,25.08
2022-08-19T05:18:34.931Z,24.08
2022-08-19T05:23:36.584Z,21.60
2022-08-19T05:28:38.133Z,23.58
2022-08-19T05:33:39.954Z,26.80
2022-08-19T05:38:41.499Z,28.30
2022-08-19T05:43:43.037Z,28.70
2022-08-19T05:48:45.191Z,28.77
2022-08-19T05:53:46.730Z,30.00
2022-08-19T05:58:48.296Z,33.53
2022-08-19T06:03:49.886Z,28.65
2022-08-19T06:08:51.621Z,34.88
2022-08-19T06:13:59.357Z,29.67
2022-08-19T06:19:07.309Z,33.67
2022-08-19T06:24:12.225Z,33.22
2022-08-19T06:29:23.498Z,30.02
2022-08-19T06:34:27.033Z,28.15
2022-08-19T06:39:31.813Z,27.77
2022-08-19T06:44:36.343Z,27.25
2022-08-19T06:49:44.323Z,28.92
2022-08-19T06:54:55.672Z,26.13
2022-08-19T06:59:57.804Z,27.23
2022-08-19T07:04:59.361Z,25.83
2022-08-19T07:10:02.897Z,24.90
2022-08-19T07:15:07.240Z,25.00
2022-08-19T07:20:09.660Z,27.10
2022-08-19T07:25:12.055Z,23.73
2022-08-19T07:30:14.126Z,19.70
2022-08-19T07:35:15.776Z,21.35
2022-08-19T07:40:17.539Z,22.75
2022-08-19T07:45:19.192Z,22.63
2022-08-19T07:50:22.060Z,18.25
2022-08-19T07:55:41.105Z,21.48
2022-08-19T08:00:48.710Z,20.05
2022-08-19T08:05:50.285Z,19.45
2022-08-19T08:10:51.886Z,20.42
2022-08-19T08:15:57.799Z,20.10
2022-08-19T08:21:00.649Z,22.85
2022-08-19T08:26:02.207Z,22.52
2022-08-19T08:31:03.871Z,18.08
2022-08-19T08:36:12.655Z,19.75
2022-08-19T08:41:43.702Z,21.27
2022-08-19T08:47:10.259Z,19.27
2022-08-19T08:52:22.579Z,19.23
2022-08-19T08:57:40.729Z,26.20
2022-08-19T09:02:43.339Z,29.02
2022-08-19T09:07:58.450Z,28.25
2022-08-19T09:13:26.032Z,27.70
2022-08-19T09:18:49.409Z,28.70
2022-08-19T09:23:52.400Z,29.05
2022-08-19T09:28:54.719Z,26.17
2022-08-19T09:33:57.254Z,27.48
2022-08-19T09:38:58.844Z,27.85
2022-08-19T09:44:01.057Z,25.75
2022-08-19T09:49:02.984Z,26.00
2022-08-19T09:54:11.166Z,22.15
2022-08-19T09:59:16.059Z,26.05
2022-08-19T10:04:20.614Z,25.85
2022-08-19T10:09:26.396Z,21.52
2022-08-19T10:14:36.424Z,17.05
2022-08-19T10:19:38.074Z,17.27
2022-08-19T10:24:39.750Z,16.83
2022-08-19T10:29:46.737Z,16.35
2022-08-19T10:34:49.187Z,11.13
2022-08-19T10:39:51.678Z,11.85
2022-08-19T10:44:53.927Z,13.02
2022-08-19T10:49:56.516Z,13.10
2022-08-19T10:54:58.077Z,10.88
2022-08-19T10:59:59.648Z,11.90
2022-08-19T11:05:04.973Z,12.70
2022-08-19T11:10:20.847Z,10.30
2022-08-19T11:15:23.161Z,12.57
2022-08-19T11:20:24.736Z,10.18
2022-08-19T11:25:26.324Z,13.73
2022-08-19T11:30:27.929Z,12.95
2022-08-19T11:35:29.537Z,11.20
2022-08-19T11:40:31.181Z,13.52
2022-08-19T11:45:32.765Z,12.20
2022-08-19T11:50:34.418Z,12.90
2022-08-19T11:55:39.297Z,11.55
2022-08-19T12:00:45.784Z,9.20
2022-08-19T12:05:48.281Z,9.55
2022-08-19T12:10:49.872Z,11.57
2022-08-19T12:15:51.403Z,12.20
2022-08-19T12:20:54.598Z,9.23
2022-08-19T12:25:59.170Z,10.50
2022-08-19T12:31:00.695Z,10.88
2022-08-19T12:36:05.075Z,9.98
2022-08-19T12:41:07.672Z,9.30
2022-08-19T12:46:10.846Z,8.85
2022-08-19T12:51:17.544Z,8.53
2022-08-19T12:56:22.377Z,10.85
2022-08-19T13:01:24.914Z,6.72
2022-08-19T13:06:27.452Z,6.90
2022-08-19T13:11:29.081Z,8.00
2022-08-19T13:16:31.045Z,7.32
2022-08-19T13:21:32.678Z,7.72
2022-08-19T13:26:34.621Z,11.43
2022-08-19T13:31:37.452Z,11.75
2022-08-19T13:36:39.487Z,8.13
2022-08-19T13:41:45.725Z,6.88
2022-08-19T13:46:49.185Z,6.80
2022-08-19T13:51:55.552Z,8.60
2022-08-19T13:56:57.099Z,7.00
2022-08-19T14:02:00.367Z,7.18
2022-08-19T14:07:02.064Z,7.07
2022-08-19T14:12:04.217Z,7.90
2022-08-19T14:17:09.645Z,10.80
2022-08-19T14:22:13.813Z,9.10
2022-08-19T14:27:16.098Z,8.90
2022-08-19T14:32:17.700Z,8.52
2022-08-19T14:37:19.372Z,10.73
2022-08-19T14:42:20.968Z,9.30
2022-08-19T14:47:22.525Z,8.23
2022-08-19T14:52:24.702Z,8.02
2022-08-19T14:57:26.292Z,10.32
2022-08-19T15:02:35.023Z,11.32
2022-08-19T15:07:38.214Z,6.32
2022-08-19T15:12:40.282Z,7.72
2022-08-19T15:17:46.063Z,7.95
2022-08-19T15:22:48.858Z,5.03
2022-08-19T15:27:50.635Z,5.75
2022-08-19T15:32:52.525Z,5.10
2022-08-19T15:37:55.209Z,4.45
2022-08-19T15:42:57.135Z,3.90
2022-08-19T15:48:03.409Z,5.75
2022-08-19T15:53:08.215Z,6.38
2022-08-19T15:58:28.047Z,5.75
2022-08-19T16:03:31.012Z,3.67
2022-08-19T16:08:32.581Z,5.53
2022-08-19T16:13:51.881Z,3.80
2022-08-19T16:18:53.468Z,4.25
2022-08-19T16:23:55.034Z,6.10
2022-08-19T16:28:58.246Z,3.20
2022-08-19T16:34:00.198Z,5.32
2022-08-19T16:39:02.056Z,4.18
2022-08-19T16:44:05.678Z,3.75
2022-08-19T16:49:08.999Z,7.30
2022-08-19T16:54:10.922Z,4.18
2022-08-19T16:59:12.741Z,3.83
2022-08-19T17:04:14.325Z,3.70
2022-08-19T17:09:16.739Z,3.65
2022-08-19T17:14:27.481Z,2.33
2022-08-19T17:19:29.062Z,4.55
2022-08-19T17:24:30.649Z,3.08
2022-08-19T17:29:33.603Z,2.88
2022-08-19T17:34:35.182Z,2.35
2022-08-19T17:39:37.209Z,2.70
2022-08-19T17:44:41.281Z,3.08
2022-08-19T17:49:43.006Z,4.07
2022-08-19T17:54:45.643Z,3.35
2022-08-19T17:59:47.267Z,3.33
2022-08-19T18:04:50.402Z,5.63
2022-08-19T18:09:52.717Z,4.28
2022-08-19T18:14:54.487Z,5.88
2022-08-19T18:19:56.245Z,5.10
2022-08-19T18:24:58.667Z,4.65
2022-08-19T18:30:00.463Z,5.40
2022-08-19T18:35:05.692Z,3.58
2022-08-19T18:40:10.493Z,3.55
2022-08-19T18:45:12.717Z,5.15
2022-08-19T18:50:14.329Z,6.03
2022-08-19T18:55:15.900Z,4.47
2022-08-19T19:00:17.490Z,4.10
2022-08-19T19:05:19.085Z,3.50
2022-08-19T19:10:20.753Z,4.07
2022-08-19T19:15:22.510Z,5.30
2022-08-19T19:20:24.060Z,4.35
2022-08-19T19:25:50.223Z,6.05
2022-08-19T19:30:54.097Z,6.18
2022-08-19T19:35:55.664Z,5.43
2022-08-19T19:40:57.338Z,4.03
2022-08-19T19:45:58.879Z,4.28
2022-08-19T19:51:00.441Z,4.00
2022-08-19T19:56:04.386Z,4.60
2022-08-19T20:01:09.780Z,4.45
2022-08-19T20:06:13.714Z,3.53
2022-08-19T20:11:30.552Z,3.75
2022-08-19T20:16:33.190Z,4.68
2022-08-19T20:21:35.290Z,5.25
2022-08-19T20:26:36.977Z,3.70
2022-08-19T20:31:46.594Z,3.55
2022-08-19T20:36:59.604Z,4.75
2022-08-19T20:42:01.166Z,4.00
2022-08-19T20:47:03.935Z,3.67
2022-08-19T20:52:05.960Z,6.43
2022-08-19T20:57:07.668Z,3.97
2022-08-19T21:02:09.313Z,3.20
2022-08-19T21:07:11.007Z,3.25
2022-08-19T21:12:13.101Z,3.65
2022-08-19T21:17:14.709Z,3.05
2022-08-19T21:22:16.315Z,3.25
2022-08-19T21:27:17.880Z,2.88
2022-08-19T21:32:19.688Z,2.78
2022-08-19T21:37:25.009Z,3.65
2022-08-19T21:42:27.682Z,5.13
2022-08-19T21:47:29.236Z,3.45
2022-08-19T21:52:31.089Z,3.47
2022-08-19T21:57:32.730Z,4.57
2022-08-19T22:02:34.320Z,3.17
2022-08-19T22:07:36.139Z,4.65
2022-08-19T22:12:39.330Z,3.13
2022-08-19T22:17:53.298Z,3.50
2022-08-19T22:22:58.089Z,2.85
2022-08-19T22:28:05.802Z,3.65
2022-08-19T22:33:10.408Z,4.13
2022-08-19T22:38:12.727Z,5.00
2022-08-19T22:43:32.342Z,3.53
2022-08-19T22:48:35.032Z,8.18
2022-08-19T22:53:38.812Z,5.00
2022-08-19T22:58:40.523Z,5.63
2022-08-19T23:03:42.621Z,7.85
2022-08-19T23:08:44.276Z,7.60
2022-08-19T23:13:45.829Z,8.20
2022-08-19T23:18:47.441Z,7.35
2022-08-19T23:23:48.999Z,6.43
2022-08-19T23:28:50.565Z,6.40
2022-08-19T23:33:52.237Z,6.03
2022-08-19T23:38:53.895Z,6.13
2022-08-19T23:43:55.630Z,5.55
2022-08-19T23:49:00.728Z,6.13
2022-08-19T23:54:02.278Z,4.60
2022-08-19T23:59:03.842Z,4.13
